createdAt,value
2023-05-09T00:00:25.723Z,14.83
2023-05-09T00:02:52.184Z,14.78
2023-05-09T00:05:18.525Z,14.73
2023-05-09T00:07:44.900Z,14.74
2023-05-09T00:10:11.368Z,14.88
2023-05-09T00:12:37.669Z,14.95
2023-05-09T00:15:04.019Z,14.97
2023-05-09T00:17:30.453Z,14.94
2023-05-09T00:19:56.762Z,14.81
2023-05-09T00:22:23.112Z,14.69
2023-05-09T00:24:49.447Z,14.66
2023-05-09T00:27:15.784Z,14.63
2023-05-09T00:29:42.176Z,14.59
2023-05-09T00:32:08.605Z,14.56
2023-05-09T00:34:35.031Z,14.53
2023-05-09T00:37:01.422Z,14.49
2023-05-09T00:39:27.765Z,14.47
2023-05-09T00:41:54.076Z,14.44
2023-05-09T00:44:20.479Z,14.41
2023-05-09T00:46:46.812Z,14.52
2023-05-09T00:49:13.211Z,14.40
2023-05-09T00:51:39.551Z,14.52
2023-05-09T00:54:08.400Z,14.44
2023-05-09T00:56:35.474Z,14.43
2023-05-09T00:59:01.859Z,14.45
2023-05-09T01:01:28.449Z,14.43
2023-05-09T01:03:54.827Z,14.47
2023-05-09T01:06:21.288Z,14.44
2023-05-09T01:08:47.623Z,14.42
2023-05-09T01:11:14.023Z,14.39
2023-05-09T01:13:40.645Z,14.36
2023-05-09T01:16:06.970Z,14.36
2023-05-09T01:18:33.306Z,14.32
2023-05-09T01:20:59.695Z,14.30
2023-05-09T01:23:26.023Z,14.26
2023-05-09T01:25:52.335Z,14.24
2023-05-09T01:28:18.773Z,14.21
2023-05-09T01:30:45.072Z,14.18
2023-05-09T01:33:11.410Z,14.15
2023-05-09T01:35:37.891Z,14.10
2023-05-09T01:38:04.229Z,14.08
2023-05-09T01:40:30.564Z,13.94
2023-05-09T01:42:56.923Z,13.89
2023-05-09T01:45:23.732Z,13.82
2023-05-09T01:47:50.184Z,13.81
2023-05-09T01:50:16.924Z,13.78
2023-05-09T01:52:43.356Z,13.77
2023-05-09T01:55:09.676Z,13.71
2023-05-09T01:57:36.061Z,13.70
2023-05-09T02:00:02.396Z,13.68
2023-05-09T02:02:39.272Z,13.65
2023-05-09T02:05:05.814Z,13.73
2023-05-09T02:07:32.136Z,13.69
2023-05-09T02:09:58.512Z,13.69
2023-05-09T02:12:24.863Z,13.67
2023-05-09T02:14:51.196Z,13.62
2023-05-09T02:17:17.583Z,13.59
2023-05-09T02:19:44.005Z,13.37
2023-05-09T02:22:10.326Z,13.48
2023-05-09T02:24:36.702Z,13.52
2023-05-09T02:27:03.048Z,13.51
2023-05-09T02:29:29.358Z,13.48
2023-05-09T02:31:55.748Z,13.33
2023-05-09T02:34:22.430Z,13.30
2023-05-09T02:36:48.775Z,13.29
2023-05-09T02:39:15.156Z,13.25
2023-05-09T02:41:41.474Z,13.21
2023-05-09T02:44:07.806Z,13.16
2023-05-09T02:46:34.353Z,13.15
2023-05-09T02:49:00.762Z,13.24
2023-05-09T02:51:27.873Z,13.23
2023-05-09T02:53:54.249Z,13.22
2023-05-09T02:56:20.611Z,13.19
2023-05-09T02:58:46.936Z,13.14
2023-05-09T03:01:13.428Z,13.12
2023-05-09T03:03:40.008Z,13.12
2023-05-09T03:06:06.629Z,13.09
2023-05-09T03:08:32.977Z,13.06
2023-05-09T03:10:59.348Z,13.04
2023-05-09T03:13:25.939Z,13.03
2023-05-09T03:15:52.468Z,13.02
2023-05-09T03:18:18.837Z,13.01
2023-05-09T03:20:45.268Z,13.00
2023-05-09T03:23:11.951Z,12.96
2023-05-09T03:25:38.367Z,12.95
2023-05-09T03:28:05.698Z,12.92
2023-05-09T03:30:32.107Z,12.90
2023-05-09T03:32:59.042Z,12.89
2023-05-09T03:35:25.530Z,12.86
2023-05-09T03:37:54.193Z,12.85
2023-05-09T03:40:20.572Z,12.83
2023-05-09T03:42:53.302Z,12.85
2023-05-09T03:45:19.899Z,12.96
2023-05-09T03:47:47.169Z,13.06
2023-05-09T03:50:13.958Z,13.12
2023-05-09T03:52:40.519Z,13.16
2023-05-09T03:55:06.958Z,13.19
2023-05-09T03:57:35.129Z,13.21
2023-05-09T04:00:01.619Z,13.23
2023-05-09T04:02:28.162Z,13.26
2023-05-09T04:04:54.725Z,13.30
2023-05-09T04:07:22.745Z,13.34
2023-05-09T04:09:49.217Z,13.39
2023-05-09T04:12:15.853Z,13.48
2023-05-09T04:14:42.345Z,13.48
2023-05-09T04:17:08.979Z,13.45
2023-05-09T04:19:35.407Z,13.43
2023-05-09T04:22:02.028Z,13.45
2023-05-09T04:24:28.638Z,13.47
2023-05-09T04:26:55.028Z,13.55
2023-05-09T04:29:23.874Z,13.58
2023-05-09T04:31:53.705Z,13.67
2023-05-09T04:34:23.560Z,13.79
2023-05-09T04:36:50.214Z,14.00
2023-05-09T04:39:16.786Z,14.19
2023-05-09T04:41:52.692Z,14.41
2023-05-09T04:44:19.425Z,14.57
2023-05-09T04:46:46.138Z,14.80
2023-05-09T04:49:12.670Z,15.03
2023-05-09T04:51:39.107Z,15.28
2023-05-09T04:54:05.603Z,15.64
2023-05-09T04:56:35.612Z,16.07
2023-05-09T04:59:02.232Z,16.42
2023-05-09T05:01:29.319Z,16.60
2023-05-09T05:03:56.380Z,16.82
2023-05-09T05:06:22.845Z,17.07
2023-05-09T05:08:49.242Z,17.33
2023-05-09T05:11:15.660Z,17.44
2023-05-09T05:13:42.156Z,17.59
2023-05-09T05:16:10.366Z,17.87
2023-05-09T05:18:36.785Z,18.16
2023-05-09T05:21:03.804Z,18.32
2023-05-09T05:23:30.136Z,18.49
2023-05-09T05:25:56.515Z,18.76
2023-05-09T05:28:23.114Z,19.12
2023-05-09T05:30:49.484Z,19.37
2023-05-09T05:33:15.868Z,19.45
2023-05-09T05:35:42.951Z,19.61
2023-05-09T05:38:09.967Z,19.95
2023-05-09T05:40:36.820Z,20.26
2023-05-09T05:43:05.197Z,20.48
2023-05-09T05:45:33.255Z,20.70
2023-05-09T05:48:02.734Z,20.94
2023-05-09T05:50:30.775Z,21.21
2023-05-09T05:52:57.232Z,21.42
2023-05-09T05:55:23.655Z,21.56
2023-05-09T05:57:50.259Z,21.50
2023-05-09T06:00:16.612Z,21.22
2023-05-09T06:02:47.979Z,21.08
2023-05-09T06:05:22.159Z,20.89
2023-05-09T06:07:49.915Z,20.87
2023-05-09T06:10:16.323Z,20.92
2023-05-09T06:12:43.984Z,20.80
2023-05-09T06:15:10.489Z,20.78
2023-05-09T06:17:40.696Z,20.76
2023-05-09T06:20:07.171Z,20.81
2023-05-09T06:22:33.631Z,20.83
2023-05-09T06:25:00.022Z,20.69
2023-05-09T06:27:26.455Z,20.44
2023-05-09T06:29:52.937Z,20.63
2023-05-09T06:32:19.313Z,21.26
2023-05-09T06:34:45.725Z,21.43
2023-05-09T06:37:12.168Z,21.57
2023-05-09T06:39:38.563Z,21.72
2023-05-09T06:42:04.943Z,21.93
2023-05-09T06:44:33.607Z,22.16
2023-05-09T06:46:59.961Z,22.36
2023-05-09T06:49:26.325Z,22.58
2023-05-09T06:51:52.712Z,22.77
2023-05-09T06:54:19.108Z,22.95
2023-05-09T06:56:45.472Z,23.08
2023-05-09T06:59:11.879Z,23.19
2023-05-09T07:01:38.272Z,23.48
2023-05-09T07:04:04.705Z,23.55
2023-05-09T07:06:31.113Z,23.77
2023-05-09T07:08:57.474Z,23.83
2023-05-09T07:11:23.862Z,23.80
2023-05-09T07:13:50.302Z,24.14
2023-05-09T07:16:16.706Z,24.27
2023-05-09T07:18:43.066Z,24.14
2023-05-09T07:21:09.485Z,24.36
2023-05-09T07:23:35.838Z,24.58
2023-05-09T07:26:02.226Z,24.64
2023-05-09T07:28:28.627Z,24.72
2023-05-09T07:30:54.978Z,24.86
2023-05-09T07:33:21.301Z,25.12
2023-05-09T07:35:47.723Z,25.29
2023-05-09T07:38:14.061Z,25.37
2023-05-09T07:40:40.398Z,25.49
2023-05-09T07:43:06.946Z,25.60
2023-05-09T07:45:33.368Z,25.54
2023-05-09T07:47:59.925Z,25.18
2023-05-09T07:50:26.430Z,24.93
2023-05-09T07:52:52.858Z,24.89
2023-05-09T07:55:21.689Z,24.90
2023-05-09T07:57:48.093Z,24.86
2023-05-09T08:00:14.479Z,24.91
2023-05-09T08:02:41.341Z,24.85
2023-05-09T08:05:07.804Z,24.80
2023-05-09T08:07:34.192Z,24.71
2023-05-09T08:10:00.556Z,24.77
2023-05-09T08:12:26.966Z,24.72
2023-05-09T08:14:53.383Z,24.75
2023-05-09T08:17:19.829Z,24.71
2023-05-09T08:19:46.334Z,24.59
2023-05-09T08:22:12.714Z,24.56
2023-05-09T08:24:39.154Z,24.55
2023-05-09T08:27:05.555Z,24.49
2023-05-09T08:29:31.915Z,24.55
2023-05-09T08:31:58.348Z,24.58
2023-05-09T08:34:24.774Z,24.70
2023-05-09T08:36:51.222Z,24.68
2023-05-09T08:39:17.616Z,24.78
2023-05-09T08:41:44.009Z,24.76
2023-05-09T08:44:10.577Z,24.87
2023-05-09T08:46:36.965Z,24.79
2023-05-09T08:49:03.434Z,24.91
2023-05-09T08:51:29.832Z,24.91
2023-05-09T08:53:56.244Z,25.03
2023-05-09T08:56:22.655Z,25.09
2023-05-09T08:58:49.068Z,25.12
2023-05-09T09:01:15.490Z,25.13
2023-05-09T09:03:42.005Z,25.10
2023-05-09T09:06:08.382Z,25.14
2023-05-09T09:08:34.790Z,25.18
2023-05-09T09:11:01.233Z,25.10
2023-05-09T09:13:27.748Z,24.88
2023-05-09T09:15:54.221Z,24.72
2023-05-09T09:18:20.771Z,24.83
2023-05-09T09:20:47.252Z,24.75
2023-05-09T09:23:13.681Z,24.97
2023-05-09T09:25:40.072Z,25.02
2023-05-09T09:28:06.531Z,25.00
2023-05-09T09:30:32.964Z,25.07
2023-05-09T09:32:59.482Z,25.04
2023-05-09T09:35:25.911Z,24.93
2023-05-09T09:37:52.306Z,24.93
2023-05-09T09:40:18.717Z,24.97
2023-05-09T09:42:45.099Z,25.00
2023-05-09T09:45:11.502Z,24.91
2023-05-09T09:47:38.003Z,25.04
2023-05-09T09:50:04.401Z,25.10
2023-05-09T09:52:30.775Z,25.13
2023-05-09T09:54:57.212Z,25.14
2023-05-09T09:57:23.621Z,25.13
2023-05-09T09:59:50.017Z,25.14
2023-05-09T10:02:16.439Z,25.17
2023-05-09T10:04:42.818Z,25.19
2023-05-09T10:07:10.580Z,25.21
2023-05-09T10:09:38.218Z,25.21
2023-05-09T10:12:04.787Z,25.17
2023-05-09T10:14:32.445Z,25.31
2023-05-09T10:17:00.129Z,25.40
2023-05-09T10:19:26.605Z,25.49
2023-05-09T10:21:52.953Z,25.57
2023-05-09T10:24:19.332Z,25.58
2023-05-09T10:26:45.740Z,25.74
2023-05-09T10:29:12.120Z,25.73
2023-05-09T10:31:38.596Z,25.85
2023-05-09T10:34:05.246Z,25.90
2023-05-09T10:36:31.862Z,25.95
2023-05-09T10:38:58.336Z,25.97
2023-05-09T10:41:24.664Z,26.06
2023-05-09T10:43:51.019Z,26.12
2023-05-09T10:46:17.510Z,26.04
2023-05-09T10:48:44.002Z,25.97
2023-05-09T10:51:10.601Z,25.89
2023-05-09T10:53:37.035Z,25.97
2023-05-09T10:56:03.362Z,26.11
2023-05-09T10:58:29.728Z,26.20
2023-05-09T11:00:57.263Z,26.30
2023-05-09T11:03:23.986Z,26.39
2023-05-09T11:05:50.523Z,26.46
2023-05-09T11:08:16.936Z,26.55
2023-05-09T11:10:43.320Z,26.52
2023-05-09T11:13:09.725Z,26.65
2023-05-09T11:15:36.233Z,26.65
2023-05-09T11:18:02.668Z,26.73
2023-05-09T11:20:29.060Z,26.78
2023-05-09T11:22:55.468Z,26.83
2023-05-09T11:25:21.835Z,26.76
2023-05-09T11:27:48.188Z,26.73
2023-05-09T11:30:14.790Z,26.77
2023-05-09T11:32:41.505Z,26.75
2023-05-09T11:35:07.883Z,26.73
2023-05-09T11:37:34.371Z,26.76
2023-05-09T11:40:00.786Z,26.82
2023-05-09T11:42:27.133Z,26.84
2023-05-09T11:44:53.623Z,26.79
2023-05-09T11:47:19.984Z,26.77
2023-05-09T11:49:46.318Z,26.78
2023-05-09T11:52:12.795Z,26.72
2023-05-09T11:54:39.156Z,26.71
2023-05-09T11:57:05.535Z,26.76
2023-05-09T11:59:32.055Z,26.84
2023-05-09T12:01:58.444Z,26.89
2023-05-09T12:04:24.898Z,26.83
2023-05-09T12:06:51.368Z,26.77
2023-05-09T12:09:17.725Z,26.59
2023-05-09T12:11:44.084Z,26.30
2023-05-09T12:14:13.533Z,25.77
2023-05-09T12:16:40.068Z,25.45
2023-05-09T12:19:06.468Z,25.29
2023-05-09T12:21:32.885Z,25.44
2023-05-09T12:23:59.271Z,25.58
2023-05-09T12:26:25.577Z,25.73
2023-05-09T12:28:51.965Z,25.86
2023-05-09T12:31:18.372Z,25.97
2023-05-09T12:33:44.795Z,26.05
2023-05-09T12:36:11.367Z,26.12
2023-05-09T12:38:37.788Z,26.14
2023-05-09T12:41:04.189Z,26.16
2023-05-09T12:43:30.606Z,26.18
2023-05-09T12:45:56.948Z,26.23
2023-05-09T12:48:23.296Z,26.32
2023-05-09T12:50:49.728Z,26.37
2023-05-09T12:53:16.061Z,26.46
2023-05-09T12:55:42.440Z,26.51
2023-05-09T12:58:08.850Z,26.60
2023-05-09T13:00:35.250Z,26.65
2023-05-09T13:03:01.757Z,26.75
2023-05-09T13:05:28.264Z,26.77
2023-05-09T13:07:54.689Z,26.72
2023-05-09T13:10:21.097Z,26.44
2023-05-09T13:12:47.513Z,26.35
2023-05-09T13:15:14.057Z,26.26
2023-05-09T13:17:40.914Z,26.35
2023-05-09T13:20:07.391Z,26.44
2023-05-09T13:22:33.847Z,26.53
2023-05-09T13:25:00.372Z,27.00
2023-05-09T13:27:26.834Z,26.63
2023-05-09T13:29:53.152Z,26.40
2023-05-09T13:32:19.509Z,26.18
2023-05-09T13:34:45.932Z,26.28
2023-05-09T13:37:12.268Z,26.26
2023-05-09T13:39:38.606Z,26.32
2023-05-09T13:42:05.104Z,26.42
2023-05-09T13:44:31.524Z,26.44
2023-05-09T13:46:57.925Z,26.51
2023-05-09T13:49:24.394Z,26.64
2023-05-09T13:51:50.752Z,26.69
2023-05-09T13:54:17.190Z,26.76
2023-05-09T13:56:43.724Z,26.81
2023-05-09T13:59:10.185Z,26.81
2023-05-09T14:01:36.745Z,26.88
2023-05-09T14:04:03.415Z,26.96
2023-05-09T14:06:29.903Z,27.01
2023-05-09T14:08:56.394Z,27.10
2023-05-09T14:11:23.013Z,27.06
2023-05-09T14:13:49.492Z,27.14
2023-05-09T14:16:15.854Z,27.11
2023-05-09T14:18:42.347Z,27.11
2023-05-09T14:21:08.696Z,27.12
2023-05-09T14:23:35.035Z,27.12
2023-05-09T14:26:01.646Z,27.15
2023-05-09T14:28:28.178Z,27.15
2023-05-09T14:30:54.645Z,27.16
2023-05-09T14:33:21.199Z,27.12
2023-05-09T14:35:47.697Z,27.16
2023-05-09T14:38:14.124Z,27.12
2023-05-09T14:40:40.504Z,27.14
2023-05-09T14:43:06.863Z,27.16
2023-05-09T14:45:33.226Z,27.20
2023-05-09T14:47:59.661Z,27.17
2023-05-09T14:50:26.003Z,27.16
2023-05-09T14:52:52.313Z,27.16
2023-05-09T14:55:18.671Z,27.16
2023-05-09T14:57:44.987Z,27.27
2023-05-09T15:00:20.633Z,27.18
2023-05-09T15:02:48.697Z,27.18
2023-05-09T15:05:15.049Z,27.15
2023-05-09T15:07:41.352Z,27.15
2023-05-09T15:10:07.908Z,27.10
2023-05-09T15:12:34.264Z,27.08
2023-05-09T15:15:00.614Z,27.10
2023-05-09T15:17:26.970Z,27.10
2023-05-09T15:19:53.302Z,27.08
2023-05-09T15:22:19.619Z,27.06
2023-05-09T15:24:46.038Z,27.04
2023-05-09T15:27:12.376Z,27.03
2023-05-09T15:29:38.689Z,27.02
2023-05-09T15:32:05.119Z,27.02
2023-05-09T15:34:31.461Z,27.00
2023-05-09T15:36:57.796Z,27.03
2023-05-09T15:39:24.193Z,27.02
2023-05-09T15:41:50.595Z,27.03
2023-05-09T15:44:16.932Z,27.04
2023-05-09T15:46:43.515Z,27.05
2023-05-09T15:49:09.874Z,27.06
2023-05-09T15:51:36.219Z,27.06
2023-05-09T15:54:02.577Z,27.04
2023-05-09T15:56:28.903Z,27.03
2023-05-09T15:58:55.245Z,27.05
2023-05-09T16:01:21.710Z,27.04
2023-05-09T16:03:48.192Z,27.04
2023-05-09T16:06:14.860Z,27.04
2023-05-09T16:08:41.266Z,27.05
2023-05-09T16:11:07.625Z,27.04
2023-05-09T16:13:35.744Z,27.03
2023-05-09T16:16:02.603Z,27.04
2023-05-09T16:18:28.952Z,27.06
2023-05-09T16:20:55.283Z,27.07
2023-05-09T16:23:21.766Z,27.06
2023-05-09T16:25:48.157Z,27.05
2023-05-09T16:28:14.496Z,26.90
2023-05-09T16:30:40.859Z,26.83
2023-05-09T16:33:07.326Z,26.93
2023-05-09T16:35:33.760Z,26.98
2023-05-09T16:38:00.178Z,27.00
2023-05-09T16:40:26.510Z,27.01
2023-05-09T16:42:52.849Z,27.02
2023-05-09T16:45:19.319Z,26.99
2023-05-09T16:47:45.762Z,26.98
2023-05-09T16:50:12.151Z,27.00
2023-05-09T16:52:38.648Z,26.99
2023-05-09T16:55:05.002Z,26.95
2023-05-09T16:57:31.352Z,26.95
2023-05-09T16:59:57.719Z,26.92
2023-05-09T17:02:24.065Z,26.92
2023-05-09T17:04:50.486Z,26.92
2023-05-09T17:07:16.912Z,26.92
2023-05-09T17:09:43.285Z,26.92
2023-05-09T17:12:09.620Z,26.91
2023-05-09T17:14:36.069Z,26.88
2023-05-09T17:17:02.588Z,26.87
2023-05-09T17:19:28.992Z,26.85
2023-05-09T17:21:55.471Z,26.81
2023-05-09T17:24:21.773Z,26.80
2023-05-09T17:26:48.095Z,26.78
2023-05-09T17:29:14.522Z,26.78
2023-05-09T17:31:40.906Z,26.75
2023-05-09T17:34:07.233Z,26.73
2023-05-09T17:36:33.826Z,26.66
2023-05-09T17:39:00.172Z,26.67
2023-05-09T17:41:26.504Z,26.65
2023-05-09T17:43:52.868Z,26.64
2023-05-09T17:46:19.274Z,26.61
2023-05-09T17:48:45.599Z,26.54
2023-05-09T17:51:11.998Z,26.56
2023-05-09T17:53:38.318Z,26.54
2023-05-09T17:56:04.647Z,26.50
2023-05-09T17:58:31.013Z,26.49
2023-05-09T18:00:57.322Z,26.48
2023-05-09T18:03:23.725Z,26.45
2023-05-09T18:05:50.221Z,26.38
2023-05-09T18:08:16.542Z,26.36
2023-05-09T18:10:42.859Z,26.33
2023-05-09T18:13:09.335Z,26.32
2023-05-09T18:15:35.677Z,26.29
2023-05-09T18:18:02.035Z,26.32
2023-05-09T18:20:28.426Z,26.28
2023-05-09T18:22:54.750Z,26.25
2023-05-09T18:25:21.064Z,26.09
2023-05-09T18:27:47.435Z,26.04
2023-05-09T18:30:13.819Z,25.99
2023-05-09T18:32:40.296Z,26.25
2023-05-09T18:35:06.673Z,26.25
2023-05-09T18:37:33.012Z,26.31
2023-05-09T18:39:59.333Z,26.44
2023-05-09T18:42:25.715Z,26.26
2023-05-09T18:44:52.046Z,26.22
2023-05-09T18:47:18.397Z,26.19
2023-05-09T18:49:44.963Z,26.14
2023-05-09T18:52:11.274Z,26.10
2023-05-09T18:54:37.596Z,25.93
2023-05-09T18:57:03.965Z,25.93
2023-05-09T18:59:30.292Z,25.89
2023-05-09T19:01:56.638Z,25.97
2023-05-09T19:04:23.135Z,25.84
2023-05-09T19:06:49.559Z,25.78
2023-05-09T19:09:15.897Z,25.74
2023-05-09T19:11:42.278Z,25.71
2023-05-09T19:14:08.699Z,25.67
2023-05-09T19:16:35.116Z,25.64
2023-05-09T19:19:01.542Z,25.59
2023-05-09T19:21:27.868Z,25.56
2023-05-09T19:23:54.194Z,25.50
2023-05-09T19:26:20.609Z,25.45
2023-05-09T19:28:46.963Z,25.45
2023-05-09T19:31:13.317Z,25.40
2023-05-09T19:33:39.680Z,25.35
2023-05-09T19:36:06.037Z,25.31
2023-05-09T19:38:32.355Z,25.27
2023-05-09T19:40:58.716Z,25.23
2023-05-09T19:43:25.173Z,25.17
2023-05-09T19:45:51.507Z,25.14
2023-05-09T19:48:17.933Z,25.05
2023-05-09T19:50:44.250Z,25.04
2023-05-09T19:53:10.580Z,24.98
2023-05-09T19:55:36.938Z,24.92
2023-05-09T19:58:03.281Z,24.88
2023-05-09T20:00:29.633Z,24.82
2023-05-09T20:02:56.074Z,24.69
2023-05-09T20:05:22.687Z,24.70
2023-05-09T20:08:09.664Z,24.63
2023-05-09T20:10:35.967Z,24.59
2023-05-09T20:13:02.296Z,24.54
2023-05-09T20:15:28.711Z,24.57
2023-05-09T20:17:55.079Z,24.60
2023-05-09T20:20:21.415Z,24.52
2023-05-09T20:22:47.769Z,24.32
2023-05-09T20:25:14.100Z,24.44
2023-05-09T20:27:40.442Z,24.23
2023-05-09T20:30:06.833Z,24.32
2023-05-09T20:32:33.177Z,24.27
2023-05-09T20:34:59.521Z,24.20
2023-05-09T20:37:25.913Z,24.12
2023-05-09T20:39:52.294Z,24.06
2023-05-09T20:42:18.664Z,24.02
2023-05-09T20:44:45.074Z,23.97
2023-05-09T20:47:11.400Z,23.92
2023-05-09T20:49:37.712Z,23.85
2023-05-09T20:52:04.112Z,23.79
2023-05-09T20:54:30.430Z,23.74
2023-05-09T20:56:56.742Z,23.70
2023-05-09T20:59:23.094Z,23.45
2023-05-09T21:01:49.403Z,23.34
2023-05-09T21:04:15.787Z,23.35
2023-05-09T21:06:42.171Z,23.34
2023-05-09T21:09:08.477Z,23.28
2023-05-09T21:11:34.777Z,23.23
2023-05-09T21:14:01.131Z,23.18
2023-05-09T21:16:27.446Z,23.11
2023-05-09T21:18:53.773Z,23.07
2023-05-09T21:21:20.178Z,23.02
2023-05-09T21:23:46.485Z,22.97
2023-05-09T21:26:12.803Z,22.92
2023-05-09T21:28:39.160Z,22.88
2023-05-09T21:31:05.560Z,22.82
2023-05-09T21:33:31.929Z,22.78
2023-05-09T21:35:58.300Z,22.73
2023-05-09T21:38:24.621Z,22.66
2023-05-09T21:40:50.929Z,22.62
2023-05-09T21:43:17.289Z,22.57
2023-05-09T21:45:43.610Z,22.53
2023-05-09T21:48:09.964Z,22.47
2023-05-09T21:50:36.343Z,22.44
2023-05-09T21:53:02.662Z,22.37
2023-05-09T21:55:28.977Z,22.28
2023-05-09T21:57:55.351Z,22.29
2023-05-09T22:00:21.663Z,22.24
2023-05-09T22:02:48.129Z,22.18
2023-05-09T22:05:14.555Z,22.16
2023-05-09T22:07:40.889Z,22.13
2023-05-09T22:10:07.216Z,22.07
2023-05-09T22:12:33.575Z,22.05
2023-05-09T22:14:59.889Z,22.00
2023-05-09T22:17:26.227Z,21.96
2023-05-09T22:19:52.612Z,21.90
2023-05-09T22:22:18.936Z,21.85
2023-05-09T22:24:45.240Z,21.77
2023-05-09T22:27:11.603Z,21.73
2023-05-09T22:29:37.977Z,21.68
2023-05-09T22:32:04.506Z,21.66
2023-05-09T22:34:30.975Z,21.60
2023-05-09T22:36:57.297Z,21.53
2023-05-09T22:39:25.006Z,21.46
2023-05-09T22:41:51.367Z,21.40
2023-05-09T22:44:17.681Z,21.34
2023-05-09T22:46:44.016Z,21.28
2023-05-09T22:49:10.388Z,21.27
2023-05-09T22:51:36.712Z,21.23
2023-05-09T22:54:03.115Z,21.17
2023-05-09T22:56:29.491Z,21.09
2023-05-09T22:58:55.847Z,21.02
2023-05-09T23:01:22.218Z,20.92
2023-05-09T23:03:48.677Z,20.89
2023-05-09T23:06:15.005Z,20.86
2023-05-09T23:08:41.395Z,20.80
2023-05-09T23:11:07.816Z,20.73
2023-05-09T23:13:34.282Z,20.64
2023-05-09T23:16:00.762Z,20.62
2023-05-09T23:18:27.317Z,20.57
2023-05-09T23:20:53.650Z,20.53
2023-05-09T23:23:19.966Z,20.48
2023-05-09T23:25:46.339Z,20.44
2023-05-09T23:28:12.671Z,20.40
2023-05-09T23:30:39.003Z,20.34
2023-05-09T23:33:05.389Z,20.30
2023-05-09T23:35:31.735Z,20.24
2023-05-09T23:37:58.054Z,20.21
2023-05-09T23:40:24.415Z,20.16
2023-05-09T23:42:50.734Z,20.13
2023-05-09T23:45:17.069Z,20.09
2023-05-09T23:47:43.480Z,20.05
2023-05-09T23:50:09.810Z,20.01
2023-05-09T23:52:36.143Z,19.97
2023-05-09T23:55:02.544Z,19.93
2023-05-09T23:57:28.875Z,19.87
2023-05-09T23:59:55.192Z,19.81
